メインページ
METAR-TAF:

METAR-TAF

空港 :

宮崎空港

宮崎, 日本

緯度: 31-52N, 経度: 131-27E, 海抜: 6m

現時点の気象観測

当レポートは23分前の07:00(UTC)に作成
の風 10kt
気温 26°C
湿度 84%
気圧 1006 hPa
視程10km以上
高度1500ftの雲はほとんどない
高度2000ftの千切れ雲あり
高度2500ftの千切れ雲あり

METAR: RJFM 200700Z 01010KT 9999 FEW015 BKN020 BKN025 26/23 Q1006

時間: 16:23 (07:23 UTC)

予報

当レポートは2時間14分前の05:09(UTC)に作成
予報は20日の 06時(UTC)から 21日の 12時(UTC)まで有効
北/北東の風 10kt
視程: 8000m
高度500ftの雲はほとんどない
高度1000ftの雲は散在している
高度1500ftの千切れ雲あり
弱いにわか雨
20日の 13時(UTC)から 20日の 16時(UTC)まで一時的に
視程: 3000m
高度500ftの雲はほとんどない
高度800ftの千切れ雲あり
高度1500ftの千切れ雲あり
にわか雨, 靄
21日の 06時(UTC)から 21日の 09時(UTC)まで徐々に
東/北東の風 20kt

TAF: RJFM 200509Z 2006/2112 02010KT 8000 -SHRA FEW005 SCT010 BKN015 TEMPO 2013/2016 3000 SHRA BR FEW005 BKN008 BKN015 BECMG 2106/2109 07020KT

4,000以上の空港の気象観測と天気予報(METAR報とTAF報)

利用可能な観測所は地図上に黄色い丸と赤い丸で示す。

丸の上にカーソルを重ねると観測所名を参照できる。

次にクリックすると気象観測と天気予報を参照できる。

マップの切り替え:黒色「×」印の緑ボタンをクリックして拡大、「-」印の緑ボタンをクリックして縮小、緑色の三角印をクリックして隣りの地図に切り替え


METAR-TAF: